createdAt,value
2019-05-14T00:01:47.931Z,30.90
2019-05-14T00:04:16.719Z,31.20
2019-05-14T00:06:45.425Z,31.40
2019-05-14T00:09:27.698Z,31.60
2019-05-14T00:11:56.430Z,31.50
2019-05-14T00:14:36.589Z,32.20
2019-05-14T00:16:55.741Z,31.70
2019-05-14T00:19:24.659Z,31.70
2019-05-14T00:21:53.325Z,32.20
2019-05-14T00:24:22.032Z,32.30
2019-05-14T00:26:51.691Z,32.10
2019-05-14T00:29:22.007Z,32.10
2019-05-14T00:31:51.673Z,32.10
2019-05-14T00:34:21.495Z,32.00
2019-05-14T00:36:52.278Z,32.30
2019-05-14T00:39:21.385Z,32.30
2019-05-14T00:41:51.254Z,32.40
2019-05-14T00:44:21.553Z,32.30
2019-05-14T00:46:51.654Z,32.30
2019-05-14T00:49:21.268Z,32.60
2019-05-14T00:51:51.992Z,32.40
2019-05-14T00:54:21.569Z,32.30
2019-05-14T00:56:52.133Z,32.30
2019-05-14T00:59:21.617Z,32.30
2019-05-14T01:01:51.671Z,32.50
2019-05-14T01:04:22.234Z,32.70
2019-05-14T01:06:51.292Z,32.60
2019-05-14T01:09:21.892Z,32.70
2019-05-14T01:11:51.282Z,32.80
2019-05-14T01:14:21.127Z,32.90
2019-05-14T01:16:51.437Z,33.30
2019-05-14T01:19:21.432Z,33.20
2019-05-14T01:21:51.082Z,32.90
2019-05-14T01:24:21.574Z,33.20
2019-05-14T01:26:52.271Z,33.00
2019-05-14T01:29:21.952Z,33.40
2019-05-14T01:31:52.021Z,33.50
2019-05-14T01:34:21.607Z,33.60
2019-05-14T01:36:52.807Z,33.50
2019-05-14T01:39:21.412Z,33.60
2019-05-14T01:41:51.649Z,33.80
2019-05-14T01:44:21.384Z,33.90
2019-05-14T01:46:51.245Z,33.80
2019-05-14T01:49:22.169Z,34.00
2019-05-14T01:51:51.233Z,34.10
2019-05-14T01:54:21.158Z,34.20
2019-05-14T01:56:51.473Z,34.10
2019-05-14T01:59:21.308Z,34.40
2019-05-14T02:01:51.736Z,34.10
2019-05-14T02:04:22.081Z,34.20
2019-05-14T02:06:51.558Z,34.30
2019-05-14T02:09:21.573Z,34.40
2019-05-14T02:11:51.838Z,34.60
2019-05-14T02:14:22.004Z,35.10
2019-05-14T02:16:51.244Z,35.10
2019-05-14T02:19:22.043Z,35.30
2019-05-14T02:21:51.402Z,35.20
2019-05-14T02:24:21.778Z,35.20
2019-05-14T02:26:53.389Z,35.20
2019-05-14T02:29:22.078Z,35.40
2019-05-14T02:31:50.922Z,35.60
2019-05-14T02:34:20.116Z,35.30
2019-05-14T02:36:49.672Z,35.40
2019-05-14T02:39:19.673Z,35.60
2019-05-14T02:41:49.928Z,35.40
2019-05-14T02:44:18.993Z,35.40
2019-05-14T02:46:50.553Z,35.30
2019-05-14T02:49:19.494Z,35.40
2019-05-14T02:51:50.345Z,35.90
2019-05-14T02:54:20.351Z,35.90
2019-05-14T02:56:49.716Z,36.10
2019-05-14T02:59:19.578Z,36.10
2019-05-14T03:01:50.348Z,35.90
2019-05-14T03:04:19.918Z,36.10
2019-05-14T03:06:49.921Z,36.10
2019-05-14T03:09:20.331Z,36.10
2019-05-14T03:11:49.634Z,36.30
2019-05-14T03:14:19.594Z,36.20
2019-05-14T03:16:49.481Z,36.30
2019-05-14T03:19:19.749Z,36.40
2019-05-14T03:21:50.114Z,36.50
2019-05-14T03:24:19.751Z,36.80
2019-05-14T03:26:49.923Z,37.20
2019-05-14T03:29:19.741Z,37.20
2019-05-14T03:31:52.639Z,37.20
2019-05-14T03:34:22.402Z,37.20
2019-05-14T03:36:52.933Z,37.70
2019-05-14T03:39:20.533Z,37.70
2019-05-14T03:41:49.825Z,37.80
2019-05-14T03:44:19.988Z,38.00
2019-05-14T03:46:55.183Z,38.00
2019-05-14T03:49:20.048Z,37.90
2019-05-14T03:51:49.745Z,38.00
2019-05-14T03:54:19.753Z,38.10
2019-05-14T03:56:49.651Z,38.10
2019-05-14T03:59:20.093Z,37.80
2019-05-14T04:01:51.206Z,37.90
2019-05-14T04:04:20.313Z,38.10
2019-05-14T04:06:49.994Z,38.00
2019-05-14T04:09:21.074Z,38.00
2019-05-14T04:11:52.914Z,38.30
2019-05-14T04:14:23.593Z,38.40
2019-05-14T04:17:15.489Z,38.60
2019-05-14T04:19:43.844Z,38.70
2019-05-14T04:22:15.087Z,38.90
2019-05-14T04:24:49.390Z,38.90
2019-05-14T04:27:20.410Z,39.20
2019-05-14T04:29:51.048Z,39.00
2019-05-14T04:32:21.040Z,39.20
2019-05-14T04:34:50.753Z,39.40
2019-05-14T04:37:20.282Z,39.30
2019-05-14T04:39:50.400Z,39.20
2019-05-14T04:42:20.472Z,39.30
2019-05-14T04:44:50.634Z,39.20
2019-05-14T04:47:31.532Z,39.40
2019-05-14T04:49:50.847Z,40.00
2019-05-14T04:52:20.702Z,40.00
2019-05-14T04:54:50.147Z,40.20
2019-05-14T04:57:21.421Z,40.00
2019-05-14T04:59:49.835Z,40.20
2019-05-14T05:02:19.888Z,40.10
2019-05-14T05:04:50.570Z,40.00
2019-05-14T05:07:19.422Z,40.20
2019-05-14T05:09:50.284Z,40.00
2019-05-14T05:12:19.663Z,40.00
2019-05-14T05:14:49.432Z,40.30
2019-05-14T05:17:19.660Z,40.00
2019-05-14T05:19:51.483Z,40.30
2019-05-14T05:22:19.635Z,40.50
2019-05-14T05:24:48.659Z,40.10
2019-05-14T05:27:18.429Z,40.50
2019-05-14T05:29:48.555Z,40.50
2019-05-14T05:32:19.430Z,40.30
2019-05-14T05:34:48.652Z,40.50
2019-05-14T05:37:19.001Z,40.60
2019-05-14T05:39:49.045Z,40.50
2019-05-14T05:42:18.802Z,40.60
2019-05-14T05:44:48.341Z,40.40
2019-05-14T05:47:18.314Z,40.50
2019-05-14T05:49:48.796Z,40.50
2019-05-14T05:52:19.081Z,40.50
2019-05-14T05:54:48.978Z,40.50
2019-05-14T05:57:18.745Z,40.50
2019-05-14T05:59:48.551Z,40.50
2019-05-14T06:02:18.652Z,40.70
2019-05-14T06:04:48.211Z,40.60
2019-05-14T06:07:18.355Z,40.80
2019-05-14T06:09:48.283Z,40.70
2019-05-14T06:12:18.998Z,40.50
2019-05-14T06:14:48.825Z,40.50
2019-05-14T06:17:19.132Z,40.80
2019-05-14T06:19:48.602Z,40.60
2019-05-14T06:22:18.806Z,40.90
2019-05-14T06:24:49.593Z,40.80
2019-05-14T06:27:18.373Z,40.90
2019-05-14T06:29:48.872Z,40.80
2019-05-14T06:32:18.633Z,40.80
2019-05-14T06:34:48.914Z,40.80
2019-05-14T06:37:19.241Z,41.10
2019-05-14T06:39:48.605Z,41.10
2019-05-14T06:42:19.309Z,41.10
2019-05-14T06:44:49.298Z,40.90
2019-05-14T06:47:18.633Z,40.60
2019-05-14T06:49:48.863Z,40.50
2019-05-14T06:52:18.695Z,40.70
2019-05-14T06:54:49.638Z,40.40
2019-05-14T06:57:18.276Z,40.60
2019-05-14T06:59:48.477Z,40.40
2019-05-14T07:02:19.335Z,40.40
2019-05-14T07:04:48.507Z,40.00
2019-05-14T07:07:20.356Z,40.00
2019-05-14T07:09:48.858Z,39.90
2019-05-14T07:12:19.150Z,40.40
2019-05-14T07:14:48.441Z,40.80
2019-05-14T07:17:18.254Z,41.50
2019-05-14T07:19:49.057Z,40.60
2019-05-14T07:22:19.520Z,41.10
2019-05-14T07:24:49.657Z,41.10
2019-05-14T07:27:19.247Z,41.10
2019-05-14T07:29:49.179Z,41.10
2019-05-14T07:32:19.209Z,41.40
2019-05-14T07:34:48.380Z,41.30
2019-05-14T07:37:18.033Z,41.30
2019-05-14T07:39:48.665Z,40.90
2019-05-14T07:42:18.324Z,41.00
2019-05-14T07:44:48.483Z,40.70
2019-05-14T07:47:18.727Z,40.60
2019-05-14T07:49:48.963Z,40.70
2019-05-14T07:52:19.698Z,41.10
2019-05-14T07:54:48.323Z,41.20
2019-05-14T07:57:19.126Z,40.50
2019-05-14T07:59:48.444Z,40.80
2019-05-14T08:02:19.410Z,40.60
2019-05-14T08:04:48.710Z,40.40
2019-05-14T08:07:18.075Z,40.50
2019-05-14T08:09:48.016Z,40.10
2019-05-14T08:12:19.162Z,39.90
2019-05-14T08:15:08.462Z,39.40
2019-05-14T08:17:19.028Z,39.30
2019-05-14T08:19:49.156Z,39.00
2019-05-14T08:22:18.662Z,38.70
2019-05-14T08:24:48.936Z,38.60
2019-05-14T08:27:19.183Z,38.70
2019-05-14T08:29:48.818Z,38.50
2019-05-14T08:32:19.114Z,38.50
2019-05-14T08:34:48.233Z,38.10
2019-05-14T08:37:19.126Z,38.30
2019-05-14T08:39:48.607Z,38.60
2019-05-14T08:42:18.592Z,39.00
2019-05-14T08:45:10.578Z,39.60
2019-05-14T08:47:39.062Z,39.00
2019-05-14T08:50:09.392Z,38.80
2019-05-14T08:52:39.322Z,38.50
2019-05-14T08:55:11.111Z,38.20
2019-05-14T08:57:39.160Z,38.00
2019-05-14T09:00:13.900Z,37.90
2019-05-14T09:02:39.430Z,37.60
2019-05-14T09:05:10.298Z,38.00
2019-05-14T09:07:39.653Z,38.10
2019-05-14T09:10:08.897Z,37.90
2019-05-14T09:12:38.884Z,37.90
2019-05-14T09:15:09.720Z,37.90
2019-05-14T09:17:39.186Z,37.40
2019-05-14T09:20:11.594Z,37.40
2019-05-14T09:22:39.925Z,37.60
2019-05-14T09:25:10.456Z,37.60
2019-05-14T09:27:39.154Z,37.00
2019-05-14T09:30:09.846Z,36.30
2019-05-14T09:32:39.169Z,36.20
2019-05-14T09:35:09.732Z,36.30
2019-05-14T09:37:39.571Z,36.10
2019-05-14T09:40:09.204Z,36.10
2019-05-14T09:42:39.398Z,35.90
2019-05-14T09:45:10.886Z,35.20
2019-05-14T09:47:39.862Z,35.30
2019-05-14T09:50:22.932Z,34.70
2019-05-14T09:52:41.089Z,34.70
2019-05-14T09:55:10.053Z,34.90
2019-05-14T09:57:38.985Z,34.30
2019-05-14T10:00:09.264Z,34.00
2019-05-14T10:02:39.338Z,33.10
2019-05-14T10:05:09.279Z,33.10
2019-05-14T10:07:39.200Z,33.20
2019-05-14T10:10:08.804Z,33.20
2019-05-14T10:12:44.777Z,32.60
2019-05-14T10:15:09.831Z,31.70
2019-05-14T10:17:39.261Z,31.80
2019-05-14T10:20:09.059Z,31.40
2019-05-14T10:22:39.832Z,31.00
2019-05-14T10:25:09.386Z,31.30
2019-05-14T10:27:38.124Z,30.70
2019-05-14T10:30:10.234Z,30.30
2019-05-14T10:32:41.726Z,30.20
2019-05-14T10:35:10.993Z,31.00
2019-05-14T10:37:40.180Z,31.10
2019-05-14T10:40:10.403Z,31.30
2019-05-14T10:42:40.301Z,30.50
2019-05-14T10:45:12.978Z,30.30
2019-05-14T10:47:41.156Z,30.20
2019-05-14T10:50:13.943Z,30.60
2019-05-14T10:52:40.565Z,30.70
2019-05-14T10:55:09.650Z,30.30
2019-05-14T10:57:38.348Z,30.40
2019-05-14T11:00:08.859Z,30.60
2019-05-14T11:02:38.847Z,30.60
2019-05-14T11:05:08.168Z,30.40
2019-05-14T11:07:41.389Z,30.50
2019-05-14T11:10:09.245Z,30.30
2019-05-14T11:12:39.639Z,30.20
2019-05-14T11:15:09.113Z,30.30
2019-05-14T11:17:40.437Z,30.00
2019-05-14T11:20:08.840Z,29.60
2019-05-14T11:22:37.562Z,29.50
2019-05-14T11:25:09.165Z,29.60
2019-05-14T11:27:38.858Z,29.50
2019-05-14T11:30:09.055Z,29.50
2019-05-14T11:32:38.566Z,29.00
2019-05-14T11:35:12.693Z,29.20
2019-05-14T11:37:41.447Z,29.30
2019-05-14T11:40:10.239Z,29.10
2019-05-14T11:42:39.072Z,29.10
2019-05-14T11:45:09.159Z,29.10
2019-05-14T11:47:38.080Z,29.50
2019-05-14T11:50:09.839Z,29.00
2019-05-14T11:52:38.847Z,29.00
2019-05-14T11:55:09.115Z,29.10
2019-05-14T11:57:37.942Z,29.20
2019-05-14T12:00:08.746Z,29.00
2019-05-14T12:02:38.445Z,29.60
2019-05-14T12:05:09.025Z,29.30
2019-05-14T12:07:38.902Z,29.20
2019-05-14T12:10:09.023Z,29.00
2019-05-14T12:12:37.926Z,29.30
2019-05-14T12:15:09.095Z,29.20
2019-05-14T12:17:39.295Z,29.20
2019-05-14T12:20:08.497Z,29.10
2019-05-14T12:22:39.289Z,29.20
2019-05-14T12:25:08.227Z,29.20
2019-05-14T12:27:38.812Z,29.10
2019-05-14T12:30:09.681Z,29.30
2019-05-14T12:32:39.500Z,29.40
2019-05-14T12:35:09.313Z,28.50
2019-05-14T12:37:38.986Z,28.50
2019-05-14T12:40:08.933Z,28.40
2019-05-14T12:42:39.393Z,28.30
2019-05-14T12:45:10.488Z,28.40
2019-05-14T12:47:39.358Z,28.30
2019-05-14T12:50:10.283Z,28.40
2019-05-14T12:52:58.849Z,28.50
2019-05-14T12:55:28.584Z,28.60
2019-05-14T12:57:59.661Z,28.60
2019-05-14T13:00:27.911Z,28.40
2019-05-14T13:02:58.463Z,28.10
2019-05-14T13:05:29.349Z,27.90
2019-05-14T13:07:57.984Z,28.00
2019-05-14T13:10:29.669Z,27.90
2019-05-14T13:12:58.896Z,27.60
2019-05-14T13:15:28.665Z,27.70
2019-05-14T13:17:57.712Z,27.60
2019-05-14T13:20:28.916Z,27.20
2019-05-14T13:22:56.840Z,27.40
2019-05-14T13:25:25.503Z,27.50
2019-05-14T13:27:54.281Z,27.60
2019-05-14T13:30:23.910Z,27.70
2019-05-14T13:32:52.723Z,27.60
2019-05-14T13:35:21.403Z,27.00
2019-05-14T13:37:50.072Z,26.90
2019-05-14T13:40:21.150Z,27.00
2019-05-14T13:42:49.551Z,26.90
2019-05-14T13:45:19.196Z,27.10
2019-05-14T13:47:48.975Z,27.10
2019-05-14T13:50:20.366Z,26.70
2019-05-14T13:53:09.335Z,26.60
2019-05-14T13:55:19.812Z,26.30
2019-05-14T13:57:48.794Z,26.10
2019-05-14T14:00:19.887Z,25.80
2019-05-14T14:02:49.079Z,25.80
2019-05-14T14:05:20.257Z,26.50
2019-05-14T14:07:48.733Z,26.20
2019-05-14T14:10:17.729Z,26.20
2019-05-14T14:12:49.343Z,26.50
2019-05-14T14:15:17.602Z,26.20
2019-05-14T14:17:46.320Z,25.90
2019-05-14T14:20:15.475Z,26.00
2019-05-14T14:22:44.286Z,25.70
2019-05-14T14:25:12.954Z,25.40
2019-05-14T14:27:41.888Z,25.40
2019-05-14T14:30:12.815Z,24.90
2019-05-14T14:32:41.511Z,25.20
2019-05-14T14:35:10.644Z,25.40
2019-05-14T14:37:40.206Z,25.20
2019-05-14T14:40:11.066Z,25.30
2019-05-14T14:42:40.720Z,25.60
2019-05-14T14:45:10.247Z,25.70
2019-05-14T14:47:39.865Z,26.20
2019-05-14T14:50:10.628Z,26.00
2019-05-14T14:52:39.356Z,26.00
2019-05-14T14:55:09.053Z,25.70
2019-05-14T14:57:44.408Z,25.80
2019-05-14T15:00:11.225Z,25.60
2019-05-14T15:02:41.466Z,25.30
2019-05-14T15:05:14.241Z,25.10
2019-05-14T15:07:41.197Z,25.10
2019-05-14T15:10:10.936Z,24.90
2019-05-14T15:12:40.426Z,24.70
2019-05-14T15:15:09.462Z,25.20
2019-05-14T15:17:39.268Z,25.10
2019-05-14T15:20:10.756Z,24.70
2019-05-14T15:22:39.712Z,24.90
2019-05-14T15:25:09.289Z,24.80
2019-05-14T15:27:38.697Z,24.60
2019-05-14T15:30:08.532Z,24.40
2019-05-14T15:32:37.226Z,24.20
2019-05-14T15:35:10.575Z,24.40
2019-05-14T15:37:42.113Z,24.80
2019-05-14T15:40:09.020Z,24.80
2019-05-14T15:42:39.526Z,24.50
2019-05-14T15:45:09.535Z,24.40
2019-05-14T15:47:39.014Z,24.30
2019-05-14T15:50:09.328Z,24.10
2019-05-14T15:52:39.389Z,24.50
2019-05-14T15:55:09.752Z,24.60
2019-05-14T15:57:39.680Z,24.40
2019-05-14T16:00:12.546Z,24.40
2019-05-14T16:02:41.279Z,24.60
2019-05-14T16:05:10.697Z,24.60
2019-05-14T16:07:41.833Z,24.40
2019-05-14T16:10:10.516Z,24.20
2019-05-14T16:12:40.098Z,23.90
2019-05-14T16:15:09.921Z,24.40
2019-05-14T16:17:47.557Z,24.10
2019-05-14T16:20:10.325Z,24.00
2019-05-14T16:22:40.513Z,24.10
2019-05-14T16:25:10.009Z,24.40
2019-05-14T16:27:39.581Z,24.20
2019-05-14T16:30:10.149Z,24.20
2019-05-14T16:32:39.760Z,24.30
2019-05-14T16:35:09.390Z,23.90
2019-05-14T16:37:39.155Z,24.40
2019-05-14T16:40:08.946Z,24.40
2019-05-14T16:42:39.615Z,24.40
2019-05-14T16:45:08.965Z,25.10
2019-05-14T16:47:39.758Z,24.00
2019-05-14T16:50:11.946Z,24.00
2019-05-14T16:52:42.189Z,23.70
2019-05-14T16:55:22.668Z,23.60
2019-05-14T16:57:41.889Z,24.10
2019-05-14T17:00:11.039Z,24.20
2019-05-14T17:02:39.738Z,24.30
2019-05-14T17:05:09.389Z,24.20
2019-05-14T17:07:39.162Z,24.00
2019-05-14T17:10:08.694Z,24.20
2019-05-14T17:12:51.707Z,24.20
2019-05-14T17:15:09.569Z,24.30
2019-05-14T17:17:38.658Z,23.90
2019-05-14T17:20:08.592Z,24.20
2019-05-14T17:22:39.760Z,24.10
2019-05-14T17:25:09.354Z,24.00
2019-05-14T17:27:39.463Z,24.00
2019-05-14T17:30:09.251Z,24.10
2019-05-14T17:32:39.205Z,23.90
2019-05-14T17:35:10.706Z,23.80
2019-05-14T17:37:39.841Z,23.90
2019-05-14T17:40:09.590Z,24.10
2019-05-14T17:42:39.406Z,24.20
2019-05-14T17:45:09.642Z,24.40
2019-05-14T17:47:38.969Z,24.20
2019-05-14T17:50:09.548Z,24.20
2019-05-14T17:52:43.461Z,24.20
2019-05-14T17:55:11.999Z,24.20
2019-05-14T17:57:46.534Z,24.30
2019-05-14T18:00:11.066Z,24.40
2019-05-14T18:02:39.798Z,24.30
2019-05-14T18:05:09.628Z,24.20
2019-05-14T18:07:38.557Z,24.20
2019-05-14T18:10:08.873Z,24.00
2019-05-14T18:12:39.702Z,24.00
2019-05-14T18:15:08.799Z,24.10
2019-05-14T18:17:39.335Z,23.90
2019-05-14T18:20:09.329Z,24.00
2019-05-14T18:22:42.080Z,24.10
2019-05-14T18:25:08.658Z,24.00
2019-05-14T18:27:39.223Z,24.30
2019-05-14T18:30:09.253Z,24.00
2019-05-14T18:32:38.875Z,23.90
2019-05-14T18:35:07.861Z,23.90
2019-05-14T18:37:38.653Z,24.00
2019-05-14T18:40:09.164Z,24.40
2019-05-14T18:42:39.082Z,24.30
2019-05-14T18:45:08.827Z,24.30
2019-05-14T18:47:39.879Z,24.50
2019-05-14T18:50:09.218Z,24.30
2019-05-14T18:52:39.824Z,24.50
2019-05-14T18:55:09.036Z,24.60
2019-05-14T18:57:38.279Z,24.60
2019-05-14T19:00:09.472Z,24.30
2019-05-14T19:02:39.224Z,24.40
2019-05-14T19:05:08.799Z,24.50
2019-05-14T19:07:39.464Z,24.30
2019-05-14T19:10:09.327Z,24.50
2019-05-14T19:12:38.990Z,24.50
2019-05-14T19:15:09.038Z,24.60
2019-05-14T19:17:38.612Z,24.80
2019-05-14T19:20:08.906Z,24.60
2019-05-14T19:22:39.656Z,24.80
2019-05-14T19:25:08.342Z,25.40
2019-05-14T19:27:38.014Z,24.70
2019-05-14T19:30:08.721Z,24.70
2019-05-14T19:32:39.290Z,24.90
2019-05-14T19:35:08.737Z,24.80
2019-05-14T19:37:39.259Z,24.70
2019-05-14T19:40:09.256Z,24.70
2019-05-14T19:42:39.188Z,24.80
2019-05-14T19:45:08.655Z,24.80
2019-05-14T19:47:39.930Z,24.80
2019-05-14T19:50:09.323Z,24.90
2019-05-14T19:52:39.093Z,25.10
2019-05-14T19:55:09.669Z,25.00
2019-05-14T19:57:38.592Z,25.30
2019-05-14T20:00:09.176Z,25.40
2019-05-14T20:02:37.968Z,25.80
2019-05-14T20:05:08.998Z,26.30
2019-05-14T20:07:38.859Z,26.60
2019-05-14T20:10:09.101Z,26.60
2019-05-14T20:12:39.344Z,26.40
2019-05-14T20:15:09.414Z,26.60
2019-05-14T20:17:38.574Z,26.90
2019-05-14T20:20:09.617Z,27.30
2019-05-14T20:22:39.604Z,27.20
2019-05-14T20:25:09.767Z,27.10
2019-05-14T20:27:39.219Z,27.00
2019-05-14T20:30:10.294Z,27.20
2019-05-14T20:32:39.011Z,27.00
2019-05-14T20:35:09.526Z,27.60
2019-05-14T20:37:38.975Z,27.80
2019-05-14T20:40:09.247Z,27.80
2019-05-14T20:42:39.139Z,28.00
2019-05-14T20:45:09.207Z,28.20
2019-05-14T20:47:39.050Z,28.30
2019-05-14T20:50:09.151Z,28.50
2019-05-14T20:52:38.115Z,28.70
2019-05-14T20:55:09.984Z,28.80
2019-05-14T20:57:39.186Z,28.70
2019-05-14T21:00:11.758Z,29.10
2019-05-14T21:02:40.645Z,29.20
2019-05-14T21:05:13.367Z,29.10
2019-05-14T21:07:40.327Z,29.20
2019-05-14T21:10:09.248Z,30.00
2019-05-14T21:12:39.473Z,29.60
2019-05-14T21:15:09.779Z,29.70
2019-05-14T21:17:39.321Z,29.80
2019-05-14T21:20:09.230Z,30.00
2019-05-14T21:22:40.126Z,30.00
2019-05-14T21:25:12.584Z,30.00
2019-05-14T21:27:48.069Z,30.00
2019-05-14T21:30:11.230Z,29.90
2019-05-14T21:32:42.699Z,29.90
2019-05-14T21:35:10.753Z,29.70
2019-05-14T21:37:39.701Z,29.90
2019-05-14T21:40:09.257Z,30.00
2019-05-14T21:42:38.801Z,30.00
2019-05-14T21:45:09.875Z,30.20
2019-05-14T21:47:39.169Z,30.30
2019-05-14T21:50:09.248Z,30.00
2019-05-14T21:52:39.278Z,30.40
2019-05-14T21:55:09.483Z,30.50
2019-05-14T21:57:42.405Z,30.70
2019-05-14T22:00:11.834Z,30.80
2019-05-14T22:02:40.629Z,31.00
2019-05-14T22:05:09.816Z,31.40
2019-05-14T22:07:38.975Z,31.30
2019-05-14T22:10:09.180Z,31.20
2019-05-14T22:12:39.462Z,31.40
2019-05-14T22:15:09.039Z,31.60
2019-05-14T22:17:38.180Z,31.30
2019-05-14T22:20:08.431Z,31.80
2019-05-14T22:22:39.195Z,31.70
2019-05-14T22:25:07.916Z,31.80
2019-05-14T22:27:39.185Z,31.60
2019-05-14T22:30:09.345Z,31.60
2019-05-14T22:32:38.439Z,31.60
2019-05-14T22:35:10.315Z,31.70
2019-05-14T22:37:39.308Z,31.90
2019-05-14T22:40:08.504Z,32.20
2019-05-14T22:42:39.303Z,32.20
2019-05-14T22:45:09.459Z,32.10
2019-05-14T22:47:40.389Z,31.90
2019-05-14T22:50:09.351Z,31.90
2019-05-14T22:52:38.753Z,31.80
2019-05-14T22:55:08.034Z,32.00
2019-05-14T22:57:39.214Z,31.80
2019-05-14T23:00:09.359Z,31.90
2019-05-14T23:02:38.366Z,32.10
2019-05-14T23:05:08.447Z,32.20
2019-05-14T23:07:38.358Z,32.30
2019-05-14T23:10:08.995Z,32.50
2019-05-14T23:12:38.669Z,32.50
2019-05-14T23:15:08.646Z,32.40
2019-05-14T23:17:38.917Z,32.80
2019-05-14T23:20:09.072Z,32.70
2019-05-14T23:22:39.109Z,33.00
2019-05-14T23:25:09.069Z,33.00
2019-05-14T23:27:39.159Z,32.90
2019-05-14T23:30:09.262Z,33.00
2019-05-14T23:32:38.653Z,33.00
2019-05-14T23:35:08.607Z,33.20
2019-05-14T23:37:37.281Z,32.90
2019-05-14T23:40:08.579Z,33.00
2019-05-14T23:42:39.271Z,33.00
2019-05-14T23:45:09.248Z,32.90
2019-05-14T23:47:38.451Z,33.00
2019-05-14T23:50:08.127Z,33.30
2019-05-14T23:52:38.647Z,33.30
2019-05-14T23:55:08.523Z,33.50
2019-05-14T23:57:37.609Z,33.50
